sensor_id;sensor_type;location;lat;lon;timestamp;P1;durP1;ratioP1;P2;durP2;ratioP2
16660;SDS011;8444;52.012;5.048;2022-08-14T00:00:11;4.70;;;4.30;;
16660;SDS011;8444;52.012;5.048;2022-08-14T00:02:38;6.82;;;4.40;;
16660;SDS011;8444;52.012;5.048;2022-08-14T00:05:04;6.68;;;4.10;;
16660;SDS011;8444;52.012;5.048;2022-08-14T00:07:29;5.65;;;4.30;;
16660;SDS011;8444;52.012;5.048;2022-08-14T00:09:54;5.20;;;4.70;;
16660;SDS011;8444;52.012;5.048;2022-08-14T00:12:20;7.15;;;4.32;;
16660;SDS011;8444;52.012;5.048;2022-08-14T00:14:45;6.43;;;4.63;;
16660;SDS011;8444;52.012;5.048;2022-08-14T00:17:10;4.88;;;4.28;;
16660;SDS011;8444;52.012;5.048;2022-08-14T00:19:35;5.57;;;4.50;;
16660;SDS011;8444;52.012;5.048;2022-08-14T00:22:01;4.72;;;4.18;;
16660;SDS011;8444;52.012;5.048;2022-08-14T00:24:26;5.63;;;4.70;;
16660;SDS011;8444;52.012;5.048;2022-08-14T00:26:51;7.13;;;4.43;;
16660;SDS011;8444;52.012;5.048;2022-08-14T00:29:17;4.95;;;4.45;;
16660;SDS011;8444;52.012;5.048;2022-08-14T00:31:42;5.45;;;4.40;;
16660;SDS011;8444;52.012;5.048;2022-08-14T00:34:07;5.60;;;5.10;;
16660;SDS011;8444;52.012;5.048;2022-08-14T00:36:33;6.85;;;4.85;;
16660;SDS011;8444;52.012;5.048;2022-08-14T00:38:58;5.20;;;4.70;;
16660;SDS011;8444;52.012;5.048;2022-08-14T00:41:28;7.63;;;5.10;;
16660;SDS011;8444;52.012;5.048;2022-08-14T00:43:53;5.30;;;4.90;;
16660;SDS011;8444;52.012;5.048;2022-08-14T00:46:19;5.45;;;5.05;;
16660;SDS011;8444;52.012;5.048;2022-08-14T00:48:44;7.90;;;4.90;;
16660;SDS011;8444;52.012;5.048;2022-08-14T00:51:09;6.50;;;4.90;;
16660;SDS011;8444;52.012;5.048;2022-08-14T00:53:35;8.68;;;4.68;;
16660;SDS011;8444;52.012;5.048;2022-08-14T00:56:01;7.95;;;5.47;;
16660;SDS011;8444;52.012;5.048;2022-08-14T00:58:26;6.63;;;5.20;;
16660;SDS011;8444;52.012;5.048;2022-08-14T01:00:54;5.25;;;4.55;;
16660;SDS011;8444;52.012;5.048;2022-08-14T01:03:20;5.68;;;4.90;;
16660;SDS011;8444;52.012;5.048;2022-08-14T01:05:45;5.60;;;5.10;;
16660;SDS011;8444;52.012;5.048;2022-08-14T01:08:14;6.32;;;4.80;;
16660;SDS011;8444;52.012;5.048;2022-08-14T01:10:40;5.50;;;4.82;;
16660;SDS011;8444;52.012;5.048;2022-08-14T01:13:17;6.57;;;4.80;;
16660;SDS011;8444;52.012;5.048;2022-08-14T01:15:43;5.40;;;4.90;;
16660;SDS011;8444;52.012;5.048;2022-08-14T01:18:09;6.30;;;5.40;;
16660;SDS011;8444;52.012;5.048;2022-08-14T01:20:54;6.03;;;5.40;;
16660;SDS011;8444;52.012;5.048;2022-08-14T01:23:30;5.47;;;5.03;;
16660;SDS011;8444;52.012;5.048;2022-08-14T01:25:56;6.68;;;5.38;;
16660;SDS011;8444;52.012;5.048;2022-08-14T01:28:22;6.18;;;5.50;;
16660;SDS011;8444;52.012;5.048;2022-08-14T01:30:48;6.25;;;5.65;;
16660;SDS011;8444;52.012;5.048;2022-08-14T01:33:19;5.85;;;5.28;;
16660;SDS011;8444;52.012;5.048;2022-08-14T01:35:45;7.63;;;5.40;;
16660;SDS011;8444;52.012;5.048;2022-08-14T01:38:14;5.78;;;5.28;;
16660;SDS011;8444;52.012;5.048;2022-08-14T01:40:39;6.63;;;6.03;;
16660;SDS011;8444;52.012;5.048;2022-08-14T01:43:11;7.28;;;5.20;;
16660;SDS011;8444;52.012;5.048;2022-08-14T01:45:41;6.25;;;5.65;;
16660;SDS011;8444;52.012;5.048;2022-08-14T01:48:07;6.80;;;5.90;;
16660;SDS011;8444;52.012;5.048;2022-08-14T01:50:32;5.97;;;5.45;;
16660;SDS011;8444;52.012;5.048;2022-08-14T01:52:58;6.18;;;5.68;;
16660;SDS011;8444;52.012;5.048;2022-08-14T01:55:26;6.47;;;5.83;;
16660;SDS011;8444;52.012;5.048;2022-08-14T01:57:54;5.85;;;5.35;;
16660;SDS011;8444;52.012;5.048;2022-08-14T02:00:19;6.38;;;5.78;;
16660;SDS011;8444;52.012;5.048;2022-08-14T02:02:44;6.63;;;5.63;;
16660;SDS011;8444;52.012;5.048;2022-08-14T02:05:11;6.80;;;6.07;;
16660;SDS011;8444;52.012;5.048;2022-08-14T02:07:36;5.57;;;5.10;;
16660;SDS011;8444;52.012;5.048;2022-08-14T02:10:02;7.28;;;5.70;;
16660;SDS011;8444;52.012;5.048;2022-08-14T02:12:29;6.57;;;5.88;;
16660;SDS011;8444;52.012;5.048;2022-08-14T02:14:54;7.95;;;6.07;;
16660;SDS011;8444;52.012;5.048;2022-08-14T02:17:20;7.45;;;5.63;;
16660;SDS011;8444;52.012;5.048;2022-08-14T02:19:47;7.15;;;5.80;;
16660;SDS011;8444;52.012;5.048;2022-08-14T02:22:13;6.60;;;5.55;;
16660;SDS011;8444;52.012;5.048;2022-08-14T02:24:38;10.45;;;6.18;;
16660;SDS011;8444;52.012;5.048;2022-08-14T02:27:03;7.50;;;6.22;;
16660;SDS011;8444;52.012;5.048;2022-08-14T02:29:29;9.00;;;6.28;;
16660;SDS011;8444;52.012;5.048;2022-08-14T02:31:57;6.65;;;5.90;;
16660;SDS011;8444;52.012;5.048;2022-08-14T02:34:24;12.43;;;6.85;;
16660;SDS011;8444;52.012;5.048;2022-08-14T02:36:54;7.82;;;5.80;;
16660;SDS011;8444;52.012;5.048;2022-08-14T02:39:22;6.45;;;5.85;;
16660;SDS011;8444;52.012;5.048;2022-08-14T02:41:47;7.82;;;7.03;;
16660;SDS011;8444;52.012;5.048;2022-08-14T02:44:15;6.57;;;5.97;;
16660;SDS011;8444;52.012;5.048;2022-08-14T02:46:42;7.47;;;6.70;;
16660;SDS011;8444;52.012;5.048;2022-08-14T02:49:08;7.57;;;6.88;;
16660;SDS011;8444;52.012;5.048;2022-08-14T02:51:35;7.15;;;6.55;;
16660;SDS011;8444;52.012;5.048;2022-08-14T02:54:00;8.23;;;6.65;;
16660;SDS011;8444;52.012;5.048;2022-08-14T02:56:25;7.03;;;6.25;;
16660;SDS011;8444;52.012;5.048;2022-08-14T02:58:51;7.47;;;6.70;;
16660;SDS011;8444;52.012;5.048;2022-08-14T03:01:19;8.95;;;6.90;;
16660;SDS011;8444;52.012;5.048;2022-08-14T03:03:45;7.60;;;6.50;;
16660;SDS011;8444;52.012;5.048;2022-08-14T03:06:11;6.90;;;6.20;;
16660;SDS011;8444;52.012;5.048;2022-08-14T03:08:37;7.07;;;6.25;;
16660;SDS011;8444;52.012;5.048;2022-08-14T03:11:04;8.38;;;6.95;;
16660;SDS011;8444;52.012;5.048;2022-08-14T03:13:52;8.93;;;6.97;;
16660;SDS011;8444;52.012;5.048;2022-08-14T03:16:19;7.63;;;6.93;;
16660;SDS011;8444;52.012;5.048;2022-08-14T03:18:45;8.50;;;7.38;;
16660;SDS011;8444;52.012;5.048;2022-08-14T03:21:14;8.70;;;7.95;;
16660;SDS011;8444;52.012;5.048;2022-08-14T03:23:41;7.88;;;6.68;;
16660;SDS011;8444;52.012;5.048;2022-08-14T03:26:10;7.68;;;6.97;;
16660;SDS011;8444;52.012;5.048;2022-08-14T03:28:36;8.10;;;7.32;;
16660;SDS011;8444;52.012;5.048;2022-08-14T03:31:04;8.45;;;7.25;;
16660;SDS011;8444;52.012;5.048;2022-08-14T03:33:30;7.85;;;7.05;;
16660;SDS011;8444;52.012;5.048;2022-08-14T03:35:55;9.55;;;7.22;;
16660;SDS011;8444;52.012;5.048;2022-08-14T03:38:20;8.00;;;7.20;;
16660;SDS011;8444;52.012;5.048;2022-08-14T03:40:45;8.03;;;7.10;;
16660;SDS011;8444;52.012;5.048;2022-08-14T03:43:14;7.85;;;7.10;;
16660;SDS011;8444;52.012;5.048;2022-08-14T03:45:39;8.65;;;7.30;;
16660;SDS011;8444;52.012;5.048;2022-08-14T03:48:15;7.88;;;7.15;;
16660;SDS011;8444;52.012;5.048;2022-08-14T03:50:44;8.75;;;7.95;;
16660;SDS011;8444;52.012;5.048;2022-08-14T03:53:09;8.50;;;7.70;;
16660;SDS011;8444;52.012;5.048;2022-08-14T03:55:35;10.20;;;7.47;;
16660;SDS011;8444;52.012;5.048;2022-08-14T03:58:02;8.75;;;7.47;;
16660;SDS011;8444;52.012;5.048;2022-08-14T04:00:28;9.10;;;6.85;;
16660;SDS011;8444;52.012;5.048;2022-08-14T04:02:53;8.32;;;7.53;;
16660;SDS011;8444;52.012;5.048;2022-08-14T04:05:18;8.70;;;7.80;;
16660;SDS011;8444;52.012;5.048;2022-08-14T04:07:45;8.60;;;7.72;;
16660;SDS011;8444;52.012;5.048;2022-08-14T04:10:10;8.27;;;7.47;;
16660;SDS011;8444;52.012;5.048;2022-08-14T04:12:36;8.60;;;7.82;;
16660;SDS011;8444;52.012;5.048;2022-08-14T04:15:01;8.50;;;7.78;;
16660;SDS011;8444;52.012;5.048;2022-08-14T04:17:27;8.05;;;7.25;;
16660;SDS011;8444;52.012;5.048;2022-08-14T04:19:53;9.20;;;8.40;;
16660;SDS011;8444;52.012;5.048;2022-08-14T04:22:18;10.23;;;8.27;;
16660;SDS011;8444;52.012;5.048;2022-08-14T04:24:45;8.70;;;7.90;;
16660;SDS011;8444;52.012;5.048;2022-08-14T04:27:10;9.07;;;8.27;;
16660;SDS011;8444;52.012;5.048;2022-08-14T04:29:37;9.43;;;8.18;;
16660;SDS011;8444;52.012;5.048;2022-08-14T04:32:04;9.93;;;8.23;;
16660;SDS011;8444;52.012;5.048;2022-08-14T04:34:29;8.80;;;7.60;;
16660;SDS011;8444;52.012;5.048;2022-08-14T04:36:54;8.88;;;7.95;;
16660;SDS011;8444;52.012;5.048;2022-08-14T04:39:38;9.57;;;8.07;;
16660;SDS011;8444;52.012;5.048;2022-08-14T04:42:22;9.25;;;8.30;;
16660;SDS011;8444;52.012;5.048;2022-08-14T04:45:06;9.75;;;8.75;;
16660;SDS011;8444;52.012;5.048;2022-08-14T04:47:32;10.43;;;8.90;;
16660;SDS011;8444;52.012;5.048;2022-08-14T04:50:16;10.00;;;8.60;;
16660;SDS011;8444;52.012;5.048;2022-08-14T04:52:41;9.33;;;8.43;;
16660;SDS011;8444;52.012;5.048;2022-08-14T04:55:06;9.43;;;8.27;;
16660;SDS011;8444;52.012;5.048;2022-08-14T04:57:32;13.27;;;8.38;;
16660;SDS011;8444;52.012;5.048;2022-08-14T04:59:58;9.48;;;8.55;;
16660;SDS011;8444;52.012;5.048;2022-08-14T05:02:23;9.23;;;8.33;;
16660;SDS011;8444;52.012;5.048;2022-08-14T05:04:51;9.63;;;8.73;;
16660;SDS011;8444;52.012;5.048;2022-08-14T05:07:16;10.05;;;8.88;;
16660;SDS011;8444;52.012;5.048;2022-08-14T05:09:41;9.40;;;8.57;;
16660;SDS011;8444;52.012;5.048;2022-08-14T05:12:07;9.63;;;8.77;;
16660;SDS011;8444;52.012;5.048;2022-08-14T05:14:32;11.25;;;9.32;;
16660;SDS011;8444;52.012;5.048;2022-08-14T05:16:57;8.55;;;7.80;;
16660;SDS011;8444;52.012;5.048;2022-08-14T05:19:23;10.23;;;9.20;;
16660;SDS011;8444;52.012;5.048;2022-08-14T05:21:51;11.05;;;9.02;;
16660;SDS011;8444;52.012;5.048;2022-08-14T05:24:20;10.18;;;9.07;;
16660;SDS011;8444;52.012;5.048;2022-08-14T05:26:45;8.68;;;7.78;;
16660;SDS011;8444;52.012;5.048;2022-08-14T05:29:10;8.88;;;7.97;;
16660;SDS011;8444;52.012;5.048;2022-08-14T05:31:35;9.07;;;8.27;;
16660;SDS011;8444;52.012;5.048;2022-08-14T05:34:04;9.27;;;7.88;;
16660;SDS011;8444;52.012;5.048;2022-08-14T05:36:29;11.48;;;8.80;;
16660;SDS011;8444;52.012;5.048;2022-08-14T05:38:57;8.63;;;7.72;;
16660;SDS011;8444;52.012;5.048;2022-08-14T05:41:22;8.73;;;8.02;;
16660;SDS011;8444;52.012;5.048;2022-08-14T05:43:47;9.90;;;9.10;;
16660;SDS011;8444;52.012;5.048;2022-08-14T05:46:14;9.75;;;8.90;;
16660;SDS011;8444;52.012;5.048;2022-08-14T05:48:42;9.43;;;8.43;;
16660;SDS011;8444;52.012;5.048;2022-08-14T05:51:07;12.40;;;9.07;;
16660;SDS011;8444;52.012;5.048;2022-08-14T05:53:32;9.67;;;8.77;;
16660;SDS011;8444;52.012;5.048;2022-08-14T05:55:58;12.17;;;8.63;;
16660;SDS011;8444;52.012;5.048;2022-08-14T05:58:23;9.48;;;8.55;;
16660;SDS011;8444;52.012;5.048;2022-08-14T06:00:48;10.32;;;8.35;;
16660;SDS011;8444;52.012;5.048;2022-08-14T06:03:14;11.55;;;9.25;;
16660;SDS011;8444;52.012;5.048;2022-08-14T06:05:43;10.32;;;8.85;;
16660;SDS011;8444;52.012;5.048;2022-08-14T06:08:19;9.32;;;8.32;;
16660;SDS011;8444;52.012;5.048;2022-08-14T06:10:45;9.80;;;8.90;;
16660;SDS011;8444;52.012;5.048;2022-08-14T06:13:10;10.75;;;8.73;;
16660;SDS011;8444;52.012;5.048;2022-08-14T06:15:36;9.45;;;8.73;;
16660;SDS011;8444;52.012;5.048;2022-08-14T06:18:01;11.35;;;9.18;;
16660;SDS011;8444;52.012;5.048;2022-08-14T06:20:27;9.13;;;8.32;;
16660;SDS011;8444;52.012;5.048;2022-08-14T06:22:52;9.07;;;8.18;;
16660;SDS011;8444;52.012;5.048;2022-08-14T06:25:17;9.43;;;8.52;;
16660;SDS011;8444;52.012;5.048;2022-08-14T06:27:44;10.00;;;9.10;;
16660;SDS011;8444;52.012;5.048;2022-08-14T06:30:11;9.98;;;8.55;;
16660;SDS011;8444;52.012;5.048;2022-08-14T06:32:36;8.98;;;8.15;;
16660;SDS011;8444;52.012;5.048;2022-08-14T06:35:05;9.20;;;8.40;;
16660;SDS011;8444;52.012;5.048;2022-08-14T06:40:08;9.05;;;8.35;;
16660;SDS011;8444;52.012;5.048;2022-08-14T06:42:34;9.30;;;8.30;;
16660;SDS011;8444;52.012;5.048;2022-08-14T06:44:59;8.93;;;8.03;;
16660;SDS011;8444;52.012;5.048;2022-08-14T06:47:25;9.23;;;8.05;;
16660;SDS011;8444;52.012;5.048;2022-08-14T06:49:50;8.80;;;8.00;;
16660;SDS011;8444;52.012;5.048;2022-08-14T06:52:15;11.60;;;8.90;;
16660;SDS011;8444;52.012;5.048;2022-08-14T06:54:41;10.67;;;8.13;;
16660;SDS011;8444;52.012;5.048;2022-08-14T06:57:07;8.55;;;7.72;;
16660;SDS011;8444;52.012;5.048;2022-08-14T06:59:32;8.93;;;8.13;;
16660;SDS011;8444;52.012;5.048;2022-08-14T07:01:57;9.23;;;8.43;;
16660;SDS011;8444;52.012;5.048;2022-08-14T07:04:41;10.57;;;8.20;;
16660;SDS011;8444;52.012;5.048;2022-08-14T07:07:25;10.93;;;7.85;;
16660;SDS011;8444;52.012;5.048;2022-08-14T07:09:50;9.18;;;8.15;;
16660;SDS011;8444;52.012;5.048;2022-08-14T07:12:15;10.37;;;8.03;;
16660;SDS011;8444;52.012;5.048;2022-08-14T07:14:40;9.50;;;7.93;;
16660;SDS011;8444;52.012;5.048;2022-08-14T07:17:06;8.93;;;8.03;;
16660;SDS011;8444;52.012;5.048;2022-08-14T07:19:31;8.07;;;7.00;;
16660;SDS011;8444;52.012;5.048;2022-08-14T07:21:56;8.60;;;7.30;;
16660;SDS011;8444;52.012;5.048;2022-08-14T07:24:21;8.13;;;7.32;;
16660;SDS011;8444;52.012;5.048;2022-08-14T07:26:46;7.70;;;6.97;;
16660;SDS011;8444;52.012;5.048;2022-08-14T07:29:11;7.57;;;6.95;;
16660;SDS011;8444;52.012;5.048;2022-08-14T07:31:37;7.90;;;6.97;;
16660;SDS011;8444;52.012;5.048;2022-08-14T07:34:02;7.30;;;6.55;;
16660;SDS011;8444;52.012;5.048;2022-08-14T07:36:27;8.40;;;7.00;;
16660;SDS011;8444;52.012;5.048;2022-08-14T07:38:52;9.37;;;7.50;;
16660;SDS011;8444;52.012;5.048;2022-08-14T07:41:18;8.48;;;7.40;;
16660;SDS011;8444;52.012;5.048;2022-08-14T07:43:43;7.53;;;6.80;;
16660;SDS011;8444;52.012;5.048;2022-08-14T07:46:08;8.00;;;7.20;;
16660;SDS011;8444;52.012;5.048;2022-08-14T07:48:38;8.17;;;7.00;;
16660;SDS011;8444;52.012;5.048;2022-08-14T07:51:03;7.97;;;7.22;;
16660;SDS011;8444;52.012;5.048;2022-08-14T07:53:29;8.15;;;7.40;;
16660;SDS011;8444;52.012;5.048;2022-08-14T07:55:54;8.65;;;6.85;;
16660;SDS011;8444;52.012;5.048;2022-08-14T07:58:19;8.27;;;7.47;;
16660;SDS011;8444;52.012;5.048;2022-08-14T08:00:45;7.60;;;6.70;;
16660;SDS011;8444;52.012;5.048;2022-08-14T08:03:10;7.47;;;6.78;;
16660;SDS011;8444;52.012;5.048;2022-08-14T08:05:36;8.95;;;7.00;;
16660;SDS011;8444;52.012;5.048;2022-08-14T08:08:02;8.90;;;7.00;;
16660;SDS011;8444;52.012;5.048;2022-08-14T08:10:28;8.23;;;7.18;;
16660;SDS011;8444;52.012;5.048;2022-08-14T08:12:57;7.10;;;6.50;;
16660;SDS011;8444;52.012;5.048;2022-08-14T08:15:23;7.53;;;6.65;;
16660;SDS011;8444;52.012;5.048;2022-08-14T08:17:49;8.50;;;7.18;;
16660;SDS011;8444;52.012;5.048;2022-08-14T08:20:17;7.72;;;6.80;;
16660;SDS011;8444;52.012;5.048;2022-08-14T08:22:42;8.05;;;7.25;;
16660;SDS011;8444;52.012;5.048;2022-08-14T08:25:08;11.00;;;6.37;;
16660;SDS011;8444;52.012;5.048;2022-08-14T08:27:33;6.15;;;5.65;;
16660;SDS011;8444;52.012;5.048;2022-08-14T08:30:03;6.97;;;6.37;;
16660;SDS011;8444;52.012;5.048;2022-08-14T08:32:28;7.13;;;6.43;;
16660;SDS011;8444;52.012;5.048;2022-08-14T08:35:01;7.32;;;6.45;;
16660;SDS011;8444;52.012;5.048;2022-08-14T08:37:27;6.72;;;6.13;;
16660;SDS011;8444;52.012;5.048;2022-08-14T08:39:52;7.20;;;6.10;;
16660;SDS011;8444;52.012;5.048;2022-08-14T08:42:24;6.57;;;5.93;;
16660;SDS011;8444;52.012;5.048;2022-08-14T08:44:53;8.48;;;7.35;;
16660;SDS011;8444;52.012;5.048;2022-08-14T08:47:18;7.35;;;6.65;;
16660;SDS011;8444;52.012;5.048;2022-08-14T08:49:43;8.87;;;6.77;;
16660;SDS011;8444;52.012;5.048;2022-08-14T08:52:09;7.20;;;6.35;;
16660;SDS011;8444;52.012;5.048;2022-08-14T08:54:35;7.20;;;6.30;;
16660;SDS011;8444;52.012;5.048;2022-08-14T08:57:01;6.63;;;6.03;;
16660;SDS011;8444;52.012;5.048;2022-08-14T08:59:29;6.50;;;5.90;;
16660;SDS011;8444;52.012;5.048;2022-08-14T09:01:58;6.25;;;5.75;;
16660;SDS011;8444;52.012;5.048;2022-08-14T09:04:25;5.93;;;5.35;;
16660;SDS011;8444;52.012;5.048;2022-08-14T09:06:51;6.82;;;6.18;;
16660;SDS011;8444;52.012;5.048;2022-08-14T09:09:17;6.40;;;5.70;;
16660;SDS011;8444;52.012;5.048;2022-08-14T09:11:43;6.25;;;5.65;;
16660;SDS011;8444;52.012;5.048;2022-08-14T09:14:08;6.05;;;5.45;;
16660;SDS011;8444;52.012;5.048;2022-08-14T09:16:33;6.07;;;5.37;;
16660;SDS011;8444;52.012;5.048;2022-08-14T09:18:59;5.88;;;5.30;;
16660;SDS011;8444;52.012;5.048;2022-08-14T09:21:24;6.35;;;5.78;;
16660;SDS011;8444;52.012;5.048;2022-08-14T09:23:51;6.68;;;6.07;;
16660;SDS011;8444;52.012;5.048;2022-08-14T09:26:16;7.65;;;5.38;;
16660;SDS011;8444;52.012;5.048;2022-08-14T09:28:41;5.20;;;4.80;;
16660;SDS011;8444;52.012;5.048;2022-08-14T09:31:06;6.00;;;5.40;;
16660;SDS011;8444;52.012;5.048;2022-08-14T09:33:39;5.93;;;5.32;;
16660;SDS011;8444;52.012;5.048;2022-08-14T09:36:24;7.05;;;5.20;;
16660;SDS011;8444;52.012;5.048;2022-08-14T09:46:27;8.48;;;5.82;;
16660;SDS011;8444;52.012;5.048;2022-08-14T09:49:06;7.40;;;6.33;;
16660;SDS011;8444;52.012;5.048;2022-08-14T09:51:31;8.73;;;5.65;;
16660;SDS011;8444;52.012;5.048;2022-08-14T09:54:04;6.30;;;5.80;;
16660;SDS011;8444;52.012;5.048;2022-08-14T09:56:44;8.35;;;6.30;;
16660;SDS011;8444;52.012;5.048;2022-08-14T09:59:11;6.63;;;6.00;;
16660;SDS011;8444;52.012;5.048;2022-08-14T10:01:40;5.32;;;4.82;;
16660;SDS011;8444;52.012;5.048;2022-08-14T10:04:15;6.00;;;5.50;;
16660;SDS011;8444;52.012;5.048;2022-08-14T10:06:41;6.82;;;5.70;;
16660;SDS011;8444;52.012;5.048;2022-08-14T10:09:09;5.20;;;4.70;;
16660;SDS011;8444;52.012;5.048;2022-08-14T10:11:36;6.88;;;4.70;;
16660;SDS011;8444;52.012;5.048;2022-08-14T10:14:15;6.28;;;5.75;;
16660;SDS011;8444;52.012;5.048;2022-08-14T10:16:44;5.90;;;5.40;;
16660;SDS011;8444;52.012;5.048;2022-08-14T10:19:10;5.43;;;4.43;;
16660;SDS011;8444;52.012;5.048;2022-08-14T10:21:37;6.45;;;4.95;;
16660;SDS011;8444;52.012;5.048;2022-08-14T10:24:03;5.03;;;4.57;;
16660;SDS011;8444;52.012;5.048;2022-08-14T10:26:29;6.60;;;4.80;;
16660;SDS011;8444;52.012;5.048;2022-08-14T10:29:03;4.53;;;4.20;;
16660;SDS011;8444;52.012;5.048;2022-08-14T10:31:28;4.10;;;3.60;;
16660;SDS011;8444;52.012;5.048;2022-08-14T10:33:56;5.80;;;3.85;;
16660;SDS011;8444;52.012;5.048;2022-08-14T10:36:27;7.00;;;4.00;;
16660;SDS011;8444;52.012;5.048;2022-08-14T10:39:01;4.38;;;3.97;;
16660;SDS011;8444;52.012;5.048;2022-08-14T10:41:33;7.05;;;4.28;;
16660;SDS011;8444;52.012;5.048;2022-08-14T10:44:06;4.10;;;3.80;;
16660;SDS011;8444;52.012;5.048;2022-08-14T10:46:39;4.00;;;3.67;;
16660;SDS011;8444;52.012;5.048;2022-08-14T10:49:05;7.88;;;4.43;;
16660;SDS011;8444;52.012;5.048;2022-08-14T10:51:33;5.22;;;4.72;;
16660;SDS011;8444;52.012;5.048;2022-08-14T10:54:03;4.25;;;3.92;;
16660;SDS011;8444;52.012;5.048;2022-08-14T10:56:30;4.75;;;3.17;;
16660;SDS011;8444;52.012;5.048;2022-08-14T10:59:01;6.40;;;4.80;;
16660;SDS011;8444;52.012;5.048;2022-08-14T11:01:30;5.25;;;4.68;;
16660;SDS011;8444;52.012;5.048;2022-08-14T11:03:56;6.82;;;4.13;;
16660;SDS011;8444;52.012;5.048;2022-08-14T11:06:21;5.35;;;4.60;;
16660;SDS011;8444;52.012;5.048;2022-08-14T11:08:47;6.50;;;5.00;;
16660;SDS011;8444;52.012;5.048;2022-08-14T11:11:12;6.95;;;4.88;;
16660;SDS011;8444;52.012;5.048;2022-08-14T11:13:39;6.00;;;4.72;;
16660;SDS011;8444;52.012;5.048;2022-08-14T11:16:07;4.53;;;4.13;;
16660;SDS011;8444;52.012;5.048;2022-08-14T11:18:32;4.57;;;4.17;;
16660;SDS011;8444;52.012;5.048;2022-08-14T11:20:58;5.13;;;4.35;;
16660;SDS011;8444;52.012;5.048;2022-08-14T11:23:26;4.57;;;4.20;;
16660;SDS011;8444;52.012;5.048;2022-08-14T11:25:52;5.15;;;4.15;;
16660;SDS011;8444;52.012;5.048;2022-08-14T11:28:19;4.55;;;4.03;;
16660;SDS011;8444;52.012;5.048;2022-08-14T11:30:46;4.35;;;3.97;;
16660;SDS011;8444;52.012;5.048;2022-08-14T11:33:13;4.53;;;3.63;;
16660;SDS011;8444;52.012;5.048;2022-08-14T11:35:38;4.32;;;3.92;;
16660;SDS011;8444;52.012;5.048;2022-08-14T11:38:05;5.32;;;4.05;;
16660;SDS011;8444;52.012;5.048;2022-08-14T11:40:31;4.30;;;4.00;;
16660;SDS011;8444;52.012;5.048;2022-08-14T11:42:59;5.15;;;4.07;;
16660;SDS011;8444;52.012;5.048;2022-08-14T11:45:26;5.10;;;3.95;;
16660;SDS011;8444;52.012;5.048;2022-08-14T11:47:52;4.47;;;3.65;;
16660;SDS011;8444;52.012;5.048;2022-08-14T11:50:23;4.28;;;3.88;;
16660;SDS011;8444;52.012;5.048;2022-08-14T11:52:48;5.22;;;3.92;;
16660;SDS011;8444;52.012;5.048;2022-08-14T11:55:14;3.63;;;3.33;;
16660;SDS011;8444;52.012;5.048;2022-08-14T11:57:40;5.18;;;3.60;;
16660;SDS011;8444;52.012;5.048;2022-08-14T12:00:07;6.18;;;3.25;;
16660;SDS011;8444;52.012;5.048;2022-08-14T12:02:33;4.57;;;3.70;;
16660;SDS011;8444;52.012;5.048;2022-08-14T12:04:58;4.10;;;3.73;;
16660;SDS011;8444;52.012;5.048;2022-08-14T12:07:23;5.10;;;3.40;;
16660;SDS011;8444;52.012;5.048;2022-08-14T12:09:52;5.72;;;4.07;;
16660;SDS011;8444;52.012;5.048;2022-08-14T12:12:22;3.92;;;3.60;;
16660;SDS011;8444;52.012;5.048;2022-08-14T12:14:51;4.00;;;3.70;;
16660;SDS011;8444;52.012;5.048;2022-08-14T12:17:18;5.10;;;3.78;;
16660;SDS011;8444;52.012;5.048;2022-08-14T12:19:44;3.60;;;3.28;;
16660;SDS011;8444;52.012;5.048;2022-08-14T12:22:10;3.40;;;3.20;;
16660;SDS011;8444;52.012;5.048;2022-08-14T12:24:35;3.40;;;3.03;;
16660;SDS011;8444;52.012;5.048;2022-08-14T12:27:00;6.13;;;3.10;;
16660;SDS011;8444;52.012;5.048;2022-08-14T12:29:25;3.37;;;3.07;;
16660;SDS011;8444;52.012;5.048;2022-08-14T12:31:58;3.83;;;3.10;;
16660;SDS011;8444;52.012;5.048;2022-08-14T12:34:28;3.50;;;2.80;;
16660;SDS011;8444;52.012;5.048;2022-08-14T12:37:00;4.55;;;3.10;;
16660;SDS011;8444;52.012;5.048;2022-08-14T12:39:27;3.63;;;3.33;;
16660;SDS011;8444;52.012;5.048;2022-08-14T12:41:53;4.67;;;3.20;;
16660;SDS011;8444;52.012;5.048;2022-08-14T12:44:30;2.90;;;2.70;;
16660;SDS011;8444;52.012;5.048;2022-08-14T12:49:27;4.80;;;3.05;;
16660;SDS011;8444;52.012;5.048;2022-08-14T12:51:57;4.18;;;2.95;;
16660;SDS011;8444;52.012;5.048;2022-08-14T12:54:22;4.50;;;3.50;;
16660;SDS011;8444;52.012;5.048;2022-08-14T12:56:47;3.50;;;3.03;;
16660;SDS011;8444;52.012;5.048;2022-08-14T12:59:13;3.05;;;2.85;;
16660;SDS011;8444;52.012;5.048;2022-08-14T13:01:39;3.63;;;3.30;;
16660;SDS011;8444;52.012;5.048;2022-08-14T13:06:33;3.20;;;2.90;;
16660;SDS011;8444;52.012;5.048;2022-08-14T13:08:58;2.70;;;2.50;;
16660;SDS011;8444;52.012;5.048;2022-08-14T13:11:23;4.40;;;3.00;;
16660;SDS011;8444;52.012;5.048;2022-08-14T13:13:51;3.10;;;2.80;;
16660;SDS011;8444;52.012;5.048;2022-08-14T13:16:19;3.63;;;3.10;;
16660;SDS011;8444;52.012;5.048;2022-08-14T13:18:45;3.47;;;3.25;;
16660;SDS011;8444;52.012;5.048;2022-08-14T13:21:11;3.42;;;3.13;;
16660;SDS011;8444;52.012;5.048;2022-08-14T13:23:38;3.30;;;3.10;;
16660;SDS011;8444;52.012;5.048;2022-08-14T13:26:05;3.25;;;2.92;;
16660;SDS011;8444;52.012;5.048;2022-08-14T13:28:31;4.95;;;3.38;;
16660;SDS011;8444;52.012;5.048;2022-08-14T13:30:58;3.88;;;3.53;;
16660;SDS011;8444;52.012;5.048;2022-08-14T13:33:24;5.43;;;3.30;;
16660;SDS011;8444;52.012;5.048;2022-08-14T13:35:50;3.92;;;3.53;;
16660;SDS011;8444;52.012;5.048;2022-08-14T13:38:17;3.13;;;2.92;;
16660;SDS011;8444;52.012;5.048;2022-08-14T13:40:44;3.30;;;2.97;;
16660;SDS011;8444;52.012;5.048;2022-08-14T13:43:11;3.38;;;3.08;;
16660;SDS011;8444;52.012;5.048;2022-08-14T13:45:36;3.70;;;3.40;;
16660;SDS011;8444;52.012;5.048;2022-08-14T13:48:01;5.05;;;3.33;;
16660;SDS011;8444;52.012;5.048;2022-08-14T13:50:27;5.05;;;3.40;;
16660;SDS011;8444;52.012;5.048;2022-08-14T13:52:52;4.05;;;3.65;;
16660;SDS011;8444;52.012;5.048;2022-08-14T13:55:27;3.67;;;3.38;;
16660;SDS011;8444;52.012;5.048;2022-08-14T13:57:57;3.85;;;3.50;;
16660;SDS011;8444;52.012;5.048;2022-08-14T14:00:23;4.28;;;3.50;;
16660;SDS011;8444;52.012;5.048;2022-08-14T14:02:48;4.30;;;3.70;;
16660;SDS011;8444;52.012;5.048;2022-08-14T14:05:16;4.18;;;3.45;;
16660;SDS011;8444;52.012;5.048;2022-08-14T14:07:48;4.50;;;3.63;;
16660;SDS011;8444;52.012;5.048;2022-08-14T14:10:14;4.20;;;3.80;;
16660;SDS011;8444;52.012;5.048;2022-08-14T14:12:40;5.30;;;3.67;;
16660;SDS011;8444;52.012;5.048;2022-08-14T14:15:07;3.30;;;3.10;;
16660;SDS011;8444;52.012;5.048;2022-08-14T14:17:34;3.83;;;3.53;;
16660;SDS011;8444;52.012;5.048;2022-08-14T14:20:00;4.85;;;3.67;;
16660;SDS011;8444;52.012;5.048;2022-08-14T14:22:26;7.28;;;3.80;;
16660;SDS011;8444;52.012;5.048;2022-08-14T14:24:51;3.85;;;3.22;;
16660;SDS011;8444;52.012;5.048;2022-08-14T14:27:17;3.65;;;3.35;;
16660;SDS011;8444;52.012;5.048;2022-08-14T14:29:43;4.03;;;3.63;;
16660;SDS011;8444;52.012;5.048;2022-08-14T14:32:11;4.18;;;3.88;;
16660;SDS011;8444;52.012;5.048;2022-08-14T14:34:37;3.80;;;3.50;;
16660;SDS011;8444;52.012;5.048;2022-08-14T14:37:03;3.58;;;3.38;;
16660;SDS011;8444;52.012;5.048;2022-08-14T14:39:30;4.65;;;3.70;;
16660;SDS011;8444;52.012;5.048;2022-08-14T14:41:56;4.13;;;3.40;;
16660;SDS011;8444;52.012;5.048;2022-08-14T14:44:27;3.85;;;3.50;;
16660;SDS011;8444;52.012;5.048;2022-08-14T14:46:56;4.03;;;3.63;;
16660;SDS011;8444;52.012;5.048;2022-08-14T14:49:22;4.05;;;3.75;;
16660;SDS011;8444;52.012;5.048;2022-08-14T14:51:48;3.85;;;3.42;;
16660;SDS011;8444;52.012;5.048;2022-08-14T14:54:15;4.30;;;3.50;;
16660;SDS011;8444;52.012;5.048;2022-08-14T14:56:41;3.97;;;3.47;;
16660;SDS011;8444;52.012;5.048;2022-08-14T14:59:07;3.85;;;3.55;;
16660;SDS011;8444;52.012;5.048;2022-08-14T15:01:35;3.60;;;3.30;;
16660;SDS011;8444;52.012;5.048;2022-08-14T15:04:00;3.97;;;3.55;;
16660;SDS011;8444;52.012;5.048;2022-08-14T15:06:27;3.53;;;3.30;;
16660;SDS011;8444;52.012;5.048;2022-08-14T15:08:53;3.97;;;3.17;;
16660;SDS011;8444;52.012;5.048;2022-08-14T15:11:19;3.88;;;3.15;;
16660;SDS011;8444;52.012;5.048;2022-08-14T15:13:44;4.03;;;3.30;;